sensor_id;sensor_type;location;lat;lon;timestamp;P1;durP1;ratioP1;P2;durP2;ratioP2
53309;SDS011;39197;53.200;5.792;2023-03-13T00:01:22;27.58;;;5.82;;
53309;SDS011;39197;53.200;5.792;2023-03-13T00:03:49;32.08;;;5.60;;
53309;SDS011;39197;53.200;5.792;2023-03-13T00:06:15;39.55;;;5.47;;
53309;SDS011;39197;53.200;5.792;2023-03-13T00:08:41;33.00;;;4.53;;
53309;SDS011;39197;53.200;5.792;2023-03-13T00:11:09;26.38;;;5.80;;
53309;SDS011;39197;53.200;5.792;2023-03-13T00:13:36;33.85;;;5.80;;
53309;SDS011;39197;53.200;5.792;2023-03-13T00:16:03;44.92;;;7.07;;
53309;SDS011;39197;53.200;5.792;2023-03-13T00:18:30;33.42;;;5.55;;
53309;SDS011;39197;53.200;5.792;2023-03-13T00:20:57;31.20;;;5.00;;
53309;SDS011;39197;53.200;5.792;2023-03-13T00:23:23;34.40;;;7.40;;
53309;SDS011;39197;53.200;5.792;2023-03-13T00:25:54;37.80;;;6.57;;
53309;SDS011;39197;53.200;5.792;2023-03-13T00:28:23;32.50;;;4.95;;
53309;SDS011;39197;53.200;5.792;2023-03-13T00:30:51;31.08;;;4.63;;
53309;SDS011;39197;53.200;5.792;2023-03-13T00:33:44;27.73;;;5.43;;
53309;SDS011;39197;53.200;5.792;2023-03-13T00:36:12;34.20;;;5.70;;
53309;SDS011;39197;53.200;5.792;2023-03-13T00:38:48;34.28;;;5.45;;
53309;SDS011;39197;53.200;5.792;2023-03-13T00:41:16;38.15;;;6.70;;
53309;SDS011;39197;53.200;5.792;2023-03-13T00:43:43;33.08;;;5.78;;
53309;SDS011;39197;53.200;5.792;2023-03-13T00:46:10;36.83;;;5.53;;
53309;SDS011;39197;53.200;5.792;2023-03-13T00:48:37;39.10;;;6.80;;
53309;SDS011;39197;53.200;5.792;2023-03-13T00:51:03;38.42;;;6.43;;
53309;SDS011;39197;53.200;5.792;2023-03-13T00:53:30;40.15;;;6.75;;
53309;SDS011;39197;53.200;5.792;2023-03-13T00:55:57;32.97;;;6.20;;
53309;SDS011;39197;53.200;5.792;2023-03-13T00:58:25;36.67;;;6.75;;
53309;SDS011;39197;53.200;5.792;2023-03-13T01:00:52;30.25;;;5.40;;
53309;SDS011;39197;53.200;5.792;2023-03-13T01:03:18;25.40;;;5.07;;
53309;SDS011;39197;53.200;5.792;2023-03-13T01:05:53;36.90;;;7.38;;
53309;SDS011;39197;53.200;5.792;2023-03-13T01:08:22;22.20;;;4.22;;
53309;SDS011;39197;53.200;5.792;2023-03-13T01:10:49;31.38;;;5.93;;
53309;SDS011;39197;53.200;5.792;2023-03-13T01:13:15;31.90;;;6.82;;
53309;SDS011;39197;53.200;5.792;2023-03-13T01:15:41;24.30;;;4.85;;
53309;SDS011;39197;53.200;5.792;2023-03-13T01:18:06;35.53;;;7.03;;
53309;SDS011;39197;53.200;5.792;2023-03-13T01:20:32;27.23;;;5.28;;
53309;SDS011;39197;53.200;5.792;2023-03-13T01:22:57;34.38;;;5.95;;
53309;SDS011;39197;53.200;5.792;2023-03-13T01:25:23;30.83;;;6.00;;
53309;SDS011;39197;53.200;5.792;2023-03-13T01:27:48;36.33;;;7.72;;
53309;SDS011;39197;53.200;5.792;2023-03-13T01:30:14;34.88;;;6.82;;
53309;SDS011;39197;53.200;5.792;2023-03-13T01:32:40;26.08;;;5.13;;
53309;SDS011;39197;53.200;5.792;2023-03-13T01:35:05;34.03;;;6.65;;
53309;SDS011;39197;53.200;5.792;2023-03-13T01:37:32;27.00;;;5.25;;
53309;SDS011;39197;53.200;5.792;2023-03-13T01:39:57;32.08;;;6.38;;
53309;SDS011;39197;53.200;5.792;2023-03-13T01:42:23;30.67;;;7.63;;
53309;SDS011;39197;53.200;5.792;2023-03-13T01:44:50;30.45;;;5.55;;
53309;SDS011;39197;53.200;5.792;2023-03-13T01:47:20;39.00;;;6.80;;
53309;SDS011;39197;53.200;5.792;2023-03-13T01:49:46;37.42;;;8.10;;
53309;SDS011;39197;53.200;5.792;2023-03-13T01:54:48;34.27;;;7.90;;
53309;SDS011;39197;53.200;5.792;2023-03-13T01:57:32;27.52;;;7.60;;
53309;SDS011;39197;53.200;5.792;2023-03-13T02:00:02;26.38;;;7.88;;
53309;SDS011;39197;53.200;5.792;2023-03-13T02:02:37;14.68;;;4.63;;
53309;SDS011;39197;53.200;5.792;2023-03-13T02:05:05;29.95;;;8.77;;
53309;SDS011;39197;53.200;5.792;2023-03-13T02:10:05;29.25;;;8.68;;
53309;SDS011;39197;53.200;5.792;2023-03-13T02:12:33;21.83;;;6.70;;
53309;SDS011;39197;53.200;5.792;2023-03-13T02:15:02;26.52;;;7.97;;
53309;SDS011;39197;53.200;5.792;2023-03-13T02:17:30;19.60;;;5.63;;
53309;SDS011;39197;53.200;5.792;2023-03-13T02:19:58;30.25;;;8.63;;
53309;SDS011;39197;53.200;5.792;2023-03-13T02:25:10;25.30;;;8.32;;
53309;SDS011;39197;53.200;5.792;2023-03-13T02:28:10;18.13;;;8.57;;
53309;SDS011;39197;53.200;5.792;2023-03-13T02:30:41;18.83;;;8.23;;
53309;SDS011;39197;53.200;5.792;2023-03-13T02:33:08;18.00;;;8.15;;
53309;SDS011;39197;53.200;5.792;2023-03-13T02:35:35;21.48;;;8.85;;
53309;SDS011;39197;53.200;5.792;2023-03-13T02:38:02;22.13;;;8.32;;
53309;SDS011;39197;53.200;5.792;2023-03-13T02:40:32;17.92;;;6.25;;
53309;SDS011;39197;53.200;5.792;2023-03-13T02:43:03;15.52;;;7.65;;
53309;SDS011;39197;53.200;5.792;2023-03-13T02:45:33;12.88;;;6.78;;
53309;SDS011;39197;53.200;5.792;2023-03-13T02:47:58;15.60;;;7.75;;
53309;SDS011;39197;53.200;5.792;2023-03-13T02:50:24;17.88;;;8.77;;
53309;SDS011;39197;53.200;5.792;2023-03-13T02:52:51;12.65;;;6.63;;
53309;SDS011;39197;53.200;5.792;2023-03-13T02:55:23;12.23;;;6.93;;
53309;SDS011;39197;53.200;5.792;2023-03-13T02:58:03;12.48;;;6.82;;
53309;SDS011;39197;53.200;5.792;2023-03-13T03:00:29;10.77;;;7.10;;
53309;SDS011;39197;53.200;5.792;2023-03-13T03:02:55;12.48;;;6.38;;
53309;SDS011;39197;53.200;5.792;2023-03-13T03:05:20;11.20;;;4.00;;
53309;SDS011;39197;53.200;5.792;2023-03-13T03:07:47;10.07;;;6.40;;
53309;SDS011;39197;53.200;5.792;2023-03-13T03:10:13;13.55;;;7.80;;
53309;SDS011;39197;53.200;5.792;2023-03-13T03:12:39;9.35;;;6.68;;
53309;SDS011;39197;53.200;5.792;2023-03-13T03:15:05;8.05;;;6.18;;
53309;SDS011;39197;53.200;5.792;2023-03-13T03:17:31;10.23;;;7.13;;
53309;SDS011;39197;53.200;5.792;2023-03-13T03:19:57;12.20;;;6.68;;
53309;SDS011;39197;53.200;5.792;2023-03-13T03:22:22;6.82;;;5.72;;
53309;SDS011;39197;53.200;5.792;2023-03-13T03:24:48;9.95;;;6.82;;
53309;SDS011;39197;53.200;5.792;2023-03-13T03:27:13;10.30;;;7.03;;
53309;SDS011;39197;53.200;5.792;2023-03-13T03:29:39;10.57;;;6.40;;
53309;SDS011;39197;53.200;5.792;2023-03-13T03:32:05;8.90;;;6.25;;
53309;SDS011;39197;53.200;5.792;2023-03-13T03:34:30;14.73;;;6.97;;
53309;SDS011;39197;53.200;5.792;2023-03-13T03:36:56;8.23;;;6.68;;
53309;SDS011;39197;53.200;5.792;2023-03-13T03:39:22;9.80;;;7.18;;
53309;SDS011;39197;53.200;5.792;2023-03-13T03:41:47;7.78;;;6.78;;
53309;SDS011;39197;53.200;5.792;2023-03-13T03:44:13;4.53;;;3.70;;
53309;SDS011;39197;53.200;5.792;2023-03-13T03:46:39;8.63;;;5.95;;
53309;SDS011;39197;53.200;5.792;2023-03-13T03:49:04;5.50;;;4.95;;
53309;SDS011;39197;53.200;5.792;2023-03-13T03:51:30;7.00;;;6.30;;
53309;SDS011;39197;53.200;5.792;2023-03-13T03:53:56;4.20;;;3.22;;
53309;SDS011;39197;53.200;5.792;2023-03-13T03:56:21;7.88;;;6.88;;
53309;SDS011;39197;53.200;5.792;2023-03-13T03:58:47;13.82;;;10.65;;
53309;SDS011;39197;53.200;5.792;2023-03-13T04:01:13;12.13;;;10.48;;
53309;SDS011;39197;53.200;5.792;2023-03-13T04:03:38;16.23;;;11.27;;
53309;SDS011;39197;53.200;5.792;2023-03-13T04:06:04;12.25;;;8.90;;
53309;SDS011;39197;53.200;5.792;2023-03-13T04:08:31;12.68;;;10.13;;
53309;SDS011;39197;53.200;5.792;2023-03-13T04:10:56;19.60;;;12.63;;
53309;SDS011;39197;53.200;5.792;2023-03-13T04:13:25;13.43;;;8.15;;
53309;SDS011;39197;53.200;5.792;2023-03-13T04:15:51;29.98;;;14.63;;
53309;SDS011;39197;53.200;5.792;2023-03-13T04:18:17;19.83;;;11.73;;
53309;SDS011;39197;53.200;5.792;2023-03-13T04:20:43;24.52;;;12.07;;
53309;SDS011;39197;53.200;5.792;2023-03-13T04:23:08;16.45;;;8.85;;
53309;SDS011;39197;53.200;5.792;2023-03-13T04:25:34;19.17;;;7.18;;
53309;SDS011;39197;53.200;5.792;2023-03-13T04:28:00;19.98;;;7.18;;
53309;SDS011;39197;53.200;5.792;2023-03-13T04:30:25;15.00;;;5.05;;
53309;SDS011;39197;53.200;5.792;2023-03-13T04:32:51;19.50;;;7.15;;
53309;SDS011;39197;53.200;5.792;2023-03-13T04:35:17;13.60;;;4.70;;
53309;SDS011;39197;53.200;5.792;2023-03-13T04:37:42;21.55;;;6.82;;
53309;SDS011;39197;53.200;5.792;2023-03-13T04:40:08;13.85;;;4.35;;
53309;SDS011;39197;53.200;5.792;2023-03-13T04:42:34;9.73;;;3.83;;
53309;SDS011;39197;53.200;5.792;2023-03-13T04:45:00;21.10;;;6.35;;
53309;SDS011;39197;53.200;5.792;2023-03-13T04:47:25;24.98;;;7.28;;
53309;SDS011;39197;53.200;5.792;2023-03-13T04:49:51;23.60;;;5.95;;
53309;SDS011;39197;53.200;5.792;2023-03-13T04:52:16;14.48;;;4.80;;
53309;SDS011;39197;53.200;5.792;2023-03-13T04:54:42;19.13;;;4.97;;
53309;SDS011;39197;53.200;5.792;2023-03-13T04:57:07;13.65;;;4.07;;
53309;SDS011;39197;53.200;5.792;2023-03-13T04:59:33;9.50;;;3.25;;
53309;SDS011;39197;53.200;5.792;2023-03-13T05:01:59;24.35;;;5.88;;
53309;SDS011;39197;53.200;5.792;2023-03-13T05:04:24;6.90;;;2.75;;
53309;SDS011;39197;53.200;5.792;2023-03-13T05:06:50;21.58;;;5.63;;
53309;SDS011;39197;53.200;5.792;2023-03-13T05:09:15;20.15;;;5.47;;
53309;SDS011;39197;53.200;5.792;2023-03-13T05:11:41;8.80;;;2.95;;
53309;SDS011;39197;53.200;5.792;2023-03-13T05:14:07;16.00;;;4.60;;
53309;SDS011;39197;53.200;5.792;2023-03-13T05:16:35;9.60;;;3.10;;
53309;SDS011;39197;53.200;5.792;2023-03-13T05:19:02;13.43;;;2.33;;
53309;SDS011;39197;53.200;5.792;2023-03-13T05:21:27;10.40;;;2.97;;
53309;SDS011;39197;53.200;5.792;2023-03-13T05:23:53;11.77;;;4.10;;
53309;SDS011;39197;53.200;5.792;2023-03-13T05:26:18;8.80;;;3.05;;
53309;SDS011;39197;53.200;5.792;2023-03-13T05:28:44;12.70;;;4.10;;
53309;SDS011;39197;53.200;5.792;2023-03-13T05:31:09;14.60;;;3.50;;
53309;SDS011;39197;53.200;5.792;2023-03-13T05:33:35;11.55;;;3.40;;
53309;SDS011;39197;53.200;5.792;2023-03-13T05:36:01;13.30;;;3.97;;
53309;SDS011;39197;53.200;5.792;2023-03-13T05:38:26;16.73;;;4.53;;
53309;SDS011;39197;53.200;5.792;2023-03-13T05:40:52;12.70;;;3.58;;
53309;SDS011;39197;53.200;5.792;2023-03-13T05:43:17;17.05;;;4.90;;
53309;SDS011;39197;53.200;5.792;2023-03-13T05:45:43;12.55;;;3.17;;
53309;SDS011;39197;53.200;5.792;2023-03-13T05:48:08;20.27;;;4.50;;
53309;SDS011;39197;53.200;5.792;2023-03-13T05:50:34;24.77;;;5.78;;
53309;SDS011;39197;53.200;5.792;2023-03-13T05:52:59;9.95;;;3.13;;
53309;SDS011;39197;53.200;5.792;2023-03-13T05:55:25;14.38;;;3.30;;
53309;SDS011;39197;53.200;5.792;2023-03-13T05:57:51;13.45;;;4.65;;
53309;SDS011;39197;53.200;5.792;2023-03-13T06:00:17;12.07;;;3.90;;
53309;SDS011;39197;53.200;5.792;2023-03-13T06:02:43;14.32;;;3.88;;
53309;SDS011;39197;53.200;5.792;2023-03-13T06:05:09;15.10;;;4.43;;
53309;SDS011;39197;53.200;5.792;2023-03-13T06:07:35;20.00;;;5.78;;
53309;SDS011;39197;53.200;5.792;2023-03-13T06:10:01;10.98;;;3.80;;
53309;SDS011;39197;53.200;5.792;2023-03-13T06:12:27;18.55;;;4.03;;
53309;SDS011;39197;53.200;5.792;2023-03-13T06:14:53;22.35;;;4.43;;
53309;SDS011;39197;53.200;5.792;2023-03-13T06:17:18;9.57;;;3.25;;
53309;SDS011;39197;53.200;5.792;2023-03-13T06:19:45;21.65;;;4.60;;
53309;SDS011;39197;53.200;5.792;2023-03-13T06:22:11;12.07;;;2.45;;
53309;SDS011;39197;53.200;5.792;2023-03-13T06:24:36;9.50;;;2.63;;
53309;SDS011;39197;53.200;5.792;2023-03-13T06:27:02;19.15;;;3.80;;
53309;SDS011;39197;53.200;5.792;2023-03-13T06:29:28;13.85;;;3.42;;
53309;SDS011;39197;53.200;5.792;2023-03-13T06:31:53;14.50;;;3.15;;
53309;SDS011;39197;53.200;5.792;2023-03-13T06:34:19;11.32;;;3.38;;
53309;SDS011;39197;53.200;5.792;2023-03-13T06:36:45;12.82;;;2.92;;
53309;SDS011;39197;53.200;5.792;2023-03-13T06:39:10;13.32;;;2.95;;
53309;SDS011;39197;53.200;5.792;2023-03-13T06:41:37;12.07;;;2.55;;
53309;SDS011;39197;53.200;5.792;2023-03-13T06:44:02;15.07;;;3.17;;
53309;SDS011;39197;53.200;5.792;2023-03-13T06:46:28;21.08;;;3.67;;
53309;SDS011;39197;53.200;5.792;2023-03-13T06:48:56;18.58;;;3.30;;
53309;SDS011;39197;53.200;5.792;2023-03-13T06:51:21;11.10;;;2.75;;
53309;SDS011;39197;53.200;5.792;2023-03-13T06:53:47;18.70;;;4.05;;
53309;SDS011;39197;53.200;5.792;2023-03-13T06:56:13;13.65;;;3.17;;
53309;SDS011;39197;53.200;5.792;2023-03-13T06:58:38;17.20;;;3.25;;
53309;SDS011;39197;53.200;5.792;2023-03-13T07:01:08;7.45;;;2.03;;
53309;SDS011;39197;53.200;5.792;2023-03-13T07:03:35;9.88;;;2.45;;
53309;SDS011;39197;53.200;5.792;2023-03-13T07:06:01;19.85;;;4.13;;
53309;SDS011;39197;53.200;5.792;2023-03-13T07:08:28;13.13;;;3.00;;
53309;SDS011;39197;53.200;5.792;2023-03-13T07:10:57;18.80;;;3.00;;
53309;SDS011;39197;53.200;5.792;2023-03-13T07:13:23;9.30;;;2.72;;
53309;SDS011;39197;53.200;5.792;2023-03-13T07:15:49;9.65;;;2.85;;
53309;SDS011;39197;53.200;5.792;2023-03-13T07:18:15;14.05;;;3.92;;
53309;SDS011;39197;53.200;5.792;2023-03-13T07:20:41;10.80;;;2.88;;
53309;SDS011;39197;53.200;5.792;2023-03-13T07:23:07;11.93;;;3.28;;
53309;SDS011;39197;53.200;5.792;2023-03-13T07:25:32;16.90;;;3.40;;
53309;SDS011;39197;53.200;5.792;2023-03-13T07:27:58;18.30;;;3.72;;
53309;SDS011;39197;53.200;5.792;2023-03-13T07:30:25;13.75;;;3.28;;
53309;SDS011;39197;53.200;5.792;2023-03-13T07:32:54;13.52;;;2.95;;
53309;SDS011;39197;53.200;5.792;2023-03-13T07:35:20;17.48;;;3.42;;
53309;SDS011;39197;53.200;5.792;2023-03-13T07:37:45;19.38;;;4.57;;
53309;SDS011;39197;53.200;5.792;2023-03-13T07:40:11;18.92;;;3.67;;
53309;SDS011;39197;53.200;5.792;2023-03-13T07:42:40;13.82;;;3.47;;
53309;SDS011;39197;53.200;5.792;2023-03-13T07:45:07;18.20;;;3.85;;
53309;SDS011;39197;53.200;5.792;2023-03-13T07:47:33;17.83;;;3.92;;
53309;SDS011;39197;53.200;5.792;2023-03-13T07:49:59;10.88;;;2.15;;
53309;SDS011;39197;53.200;5.792;2023-03-13T07:52:25;5.38;;;1.52;;
53309;SDS011;39197;53.200;5.792;2023-03-13T07:54:52;17.35;;;3.20;;
53309;SDS011;39197;53.200;5.792;2023-03-13T07:57:18;11.63;;;2.72;;
53309;SDS011;39197;53.200;5.792;2023-03-13T07:59:44;18.35;;;2.97;;
53309;SDS011;39197;53.200;5.792;2023-03-13T08:02:10;11.57;;;2.58;;
53309;SDS011;39197;53.200;5.792;2023-03-13T08:04:37;11.43;;;2.75;;
53309;SDS011;39197;53.200;5.792;2023-03-13T08:07:07;14.18;;;2.90;;
53309;SDS011;39197;53.200;5.792;2023-03-13T08:09:33;11.00;;;2.80;;
53309;SDS011;39197;53.200;5.792;2023-03-13T08:11:59;16.85;;;2.75;;
53309;SDS011;39197;53.200;5.792;2023-03-13T08:14:25;10.48;;;2.33;;
53309;SDS011;39197;53.200;5.792;2023-03-13T08:16:50;11.55;;;2.63;;
53309;SDS011;39197;53.200;5.792;2023-03-13T08:19:16;15.45;;;2.83;;
53309;SDS011;39197;53.200;5.792;2023-03-13T08:21:41;12.95;;;2.38;;
53309;SDS011;39197;53.200;5.792;2023-03-13T08:24:07;16.25;;;3.00;;
53309;SDS011;39197;53.200;5.792;2023-03-13T08:26:36;14.93;;;2.85;;
53309;SDS011;39197;53.200;5.792;2023-03-13T08:29:07;13.00;;;3.00;;
53309;SDS011;39197;53.200;5.792;2023-03-13T08:31:35;15.13;;;3.42;;
53309;SDS011;39197;53.200;5.792;2023-03-13T08:34:03;11.35;;;2.15;;
53309;SDS011;39197;53.200;5.792;2023-03-13T08:36:35;15.75;;;3.25;;
53309;SDS011;39197;53.200;5.792;2023-03-13T08:39:03;15.30;;;3.08;;
53309;SDS011;39197;53.200;5.792;2023-03-13T08:41:32;8.80;;;2.05;;
53309;SDS011;39197;53.200;5.792;2023-03-13T08:44:00;11.60;;;2.42;;
53309;SDS011;39197;53.200;5.792;2023-03-13T08:46:27;15.50;;;2.67;;
53309;SDS011;39197;53.200;5.792;2023-03-13T08:48:54;12.90;;;2.60;;
53309;SDS011;39197;53.200;5.792;2023-03-13T08:51:21;11.75;;;2.92;;
53309;SDS011;39197;53.200;5.792;2023-03-13T08:53:48;9.40;;;1.85;;
53309;SDS011;39197;53.200;5.792;2023-03-13T08:56:15;10.13;;;1.92;;
53309;SDS011;39197;53.200;5.792;2023-03-13T08:58:43;11.27;;;2.45;;
53309;SDS011;39197;53.200;5.792;2023-03-13T09:01:13;4.25;;;1.20;;
53309;SDS011;39197;53.200;5.792;2023-03-13T09:03:40;15.15;;;2.80;;
53309;SDS011;39197;53.200;5.792;2023-03-13T09:06:06;12.15;;;2.75;;
53309;SDS011;39197;53.200;5.792;2023-03-13T09:08:33;10.40;;;1.60;;
53309;SDS011;39197;53.200;5.792;2023-03-13T09:11:00;14.38;;;2.60;;
53309;SDS011;39197;53.200;5.792;2023-03-13T09:13:28;10.60;;;2.17;;
53309;SDS011;39197;53.200;5.792;2023-03-13T09:16:02;13.65;;;2.67;;
53309;SDS011;39197;53.200;5.792;2023-03-13T09:18:31;10.18;;;1.92;;
53309;SDS011;39197;53.200;5.792;2023-03-13T09:20:57;13.23;;;2.45;;
53309;SDS011;39197;53.200;5.792;2023-03-13T09:23:23;11.02;;;2.22;;
53309;SDS011;39197;53.200;5.792;2023-03-13T09:25:51;21.83;;;3.67;;
53309;SDS011;39197;53.200;5.792;2023-03-13T09:28:18;14.68;;;2.63;;
53309;SDS011;39197;53.200;5.792;2023-03-13T09:30:44;24.55;;;4.00;;
53309;SDS011;39197;53.200;5.792;2023-03-13T09:33:09;21.75;;;3.90;;
53309;SDS011;39197;53.200;5.792;2023-03-13T09:35:37;19.92;;;2.78;;
53309;SDS011;39197;53.200;5.792;2023-03-13T09:38:03;15.30;;;3.35;;
53309;SDS011;39197;53.200;5.792;2023-03-13T09:40:29;8.85;;;1.80;;
53309;SDS011;39197;53.200;5.792;2023-03-13T09:43:01;10.48;;;2.25;;
53309;SDS011;39197;53.200;5.792;2023-03-13T09:45:30;11.52;;;1.48;;
53309;SDS011;39197;53.200;5.792;2023-03-13T09:51:33;16.55;;;2.33;;
53309;SDS011;39197;53.200;5.792;2023-03-13T09:56:17;16.60;;;3.72;;
53309;SDS011;39197;53.200;5.792;2023-03-13T09:58:49;13.73;;;2.45;;
53309;SDS011;39197;53.200;5.792;2023-03-13T10:01:27;7.32;;;1.10;;
53309;SDS011;39197;53.200;5.792;2023-03-13T10:04:01;16.77;;;2.72;;
53309;SDS011;39197;53.200;5.792;2023-03-13T10:06:37;10.93;;;2.80;;
53309;SDS011;39197;53.200;5.792;2023-03-13T10:09:48;19.65;;;3.25;;
53309;SDS011;39197;53.200;5.792;2023-03-13T10:11:59;15.60;;;2.22;;
53309;SDS011;39197;53.200;5.792;2023-03-13T10:17:32;19.55;;;4.20;;
53309;SDS011;39197;53.200;5.792;2023-03-13T10:20:09;11.52;;;2.92;;
53309;SDS011;39197;53.200;5.792;2023-03-13T10:23:00;12.93;;;2.95;;
53309;SDS011;39197;53.200;5.792;2023-03-13T10:25:36;24.40;;;3.45;;
53309;SDS011;39197;53.200;5.792;2023-03-13T10:28:03;11.20;;;2.25;;
53309;SDS011;39197;53.200;5.792;2023-03-13T10:30:31;21.55;;;4.10;;
53309;SDS011;39197;53.200;5.792;2023-03-13T10:35:32;20.50;;;3.88;;
53309;SDS011;39197;53.200;5.792;2023-03-13T10:38:08;13.18;;;3.25;;
53309;SDS011;39197;53.200;5.792;2023-03-13T10:40:36;13.77;;;2.83;;
53309;SDS011;39197;53.200;5.792;2023-03-13T10:43:11;14.57;;;2.97;;
53309;SDS011;39197;53.200;5.792;2023-03-13T10:45:41;18.73;;;4.10;;
53309;SDS011;39197;53.200;5.792;2023-03-13T10:50:43;13.00;;;2.05;;
53309;SDS011;39197;53.200;5.792;2023-03-13T10:55:57;14.13;;;3.00;;
53309;SDS011;39197;53.200;5.792;2023-03-13T10:58:48;16.00;;;3.25;;
53309;SDS011;39197;53.200;5.792;2023-03-13T11:01:27;13.55;;;3.83;;
53309;SDS011;39197;53.200;5.792;2023-03-13T11:03:57;13.57;;;2.80;;
53309;SDS011;39197;53.200;5.792;2023-03-13T11:14:14;16.23;;;2.08;;
53309;SDS011;39197;53.200;5.792;2023-03-13T11:16:45;12.10;;;3.33;;
53309;SDS011;39197;53.200;5.792;2023-03-13T11:19:19;19.65;;;3.67;;
53309;SDS011;39197;53.200;5.792;2023-03-13T11:24:46;6.07;;;0.98;;
53309;SDS011;39197;53.200;5.792;2023-03-13T11:27:43;13.98;;;2.40;;
53309;SDS011;39197;53.200;5.792;2023-03-13T11:41:59;14.73;;;3.22;;
53309;SDS011;39197;53.200;5.792;2023-03-13T11:50:45;16.65;;;2.47;;
53309;SDS011;39197;53.200;5.792;2023-03-13T11:53:50;24.73;;;4.18;;
53309;SDS011;39197;53.200;5.792;2023-03-13T12:01:53;8.60;;;1.40;;
53309;SDS011;39197;53.200;5.792;2023-03-13T12:04:26;12.38;;;2.33;;
53309;SDS011;39197;53.200;5.792;2023-03-13T12:07:01;20.75;;;4.30;;
53309;SDS011;39197;53.200;5.792;2023-03-13T12:09:56;17.00;;;3.10;;
53309;SDS011;39197;53.200;5.792;2023-03-13T12:12:50;13.07;;;3.80;;
53309;SDS011;39197;53.200;5.792;2023-03-13T12:15:57;16.25;;;4.10;;
53309;SDS011;39197;53.200;5.792;2023-03-13T12:18:22;15.52;;;3.40;;
53309;SDS011;39197;53.200;5.792;2023-03-13T12:24:03;18.98;;;4.15;;
53309;SDS011;39197;53.200;5.792;2023-03-13T12:26:36;17.35;;;4.22;;
53309;SDS011;39197;53.200;5.792;2023-03-13T12:30:18;14.25;;;3.10;;
53309;SDS011;39197;53.200;5.792;2023-03-13T12:32:26;21.23;;;3.90;;
53309;SDS011;39197;53.200;5.792;2023-03-13T12:40:55;13.35;;;2.92;;
53309;SDS011;39197;53.200;5.792;2023-03-13T12:43:27;17.65;;;3.35;;
53309;SDS011;39197;53.200;5.792;2023-03-13T12:51:24;13.95;;;3.35;;
53309;SDS011;39197;53.200;5.792;2023-03-13T12:59:42;18.88;;;4.20;;
53309;SDS011;39197;53.200;5.792;2023-03-13T13:02:17;14.65;;;3.38;;
53309;SDS011;39197;53.200;5.792;2023-03-13T13:04:47;13.68;;;3.40;;
53309;SDS011;39197;53.200;5.792;2023-03-13T13:12:40;24.17;;;4.60;;
53309;SDS011;39197;53.200;5.792;2023-03-13T13:15:29;17.95;;;3.78;;
53309;SDS011;39197;53.200;5.792;2023-03-13T13:17:57;16.98;;;3.63;;
53309;SDS011;39197;53.200;5.792;2023-03-13T13:20:39;14.07;;;3.03;;
53309;SDS011;39197;53.200;5.792;2023-03-13T13:23:20;22.92;;;4.10;;
53309;SDS011;39197;53.200;5.792;2023-03-13T13:25:48;30.67;;;6.10;;
53309;SDS011;39197;53.200;5.792;2023-03-13T13:30:46;21.20;;;4.53;;
53309;SDS011;39197;53.200;5.792;2023-03-13T13:35:45;15.45;;;3.17;;
53309;SDS011;39197;53.200;5.792;2023-03-13T13:43:25;11.13;;;2.42;;
53309;SDS011;39197;53.200;5.792;2023-03-13T13:51:41;28.60;;;5.53;;
53309;SDS011;39197;53.200;5.792;2023-03-13T13:54:31;15.02;;;3.90;;
53309;SDS011;39197;53.200;5.792;2023-03-13T13:57:16;17.23;;;4.20;;
53309;SDS011;39197;53.200;5.792;2023-03-13T14:00:33;20.02;;;4.45;;
53309;SDS011;39197;53.200;5.792;2023-03-13T14:02:50;20.77;;;3.92;;
53309;SDS011;39197;53.200;5.792;2023-03-13T14:05:24;21.33;;;4.80;;
53309;SDS011;39197;53.200;5.792;2023-03-13T14:10:41;18.70;;;4.93;;
53309;SDS011;39197;53.200;5.792;2023-03-13T14:13:14;24.23;;;4.93;;
53309;SDS011;39197;53.200;5.792;2023-03-13T14:18:10;19.73;;;3.58;;
53309;SDS011;39197;53.200;5.792;2023-03-13T14:23:53;32.13;;;5.15;;
53309;SDS011;39197;53.200;5.792;2023-03-13T14:26:18;27.27;;;7.32;;
53309;SDS011;39197;53.200;5.792;2023-03-13T14:28:56;11.70;;;3.13;;
53309;SDS011;39197;53.200;5.792;2023-03-13T14:31:27;30.98;;;5.95;;
53309;SDS011;39197;53.200;5.792;2023-03-13T14:34:02;33.35;;;6.53;;
53309;SDS011;39197;53.200;5.792;2023-03-13T14:36:29;26.65;;;5.72;;
53309;SDS011;39197;53.200;5.792;2023-03-13T14:39:11;28.15;;;5.00;;
53309;SDS011;39197;53.200;5.792;2023-03-13T14:41:45;25.08;;;5.82;;
53309;SDS011;39197;53.200;5.792;2023-03-13T14:44:25;35.35;;;6.10;;
53309;SDS011;39197;53.200;5.792;2023-03-13T14:49:22;25.23;;;5.57;;
53309;SDS011;39197;53.200;5.792;2023-03-13T14:51:57;19.23;;;3.47;;
53309;SDS011;39197;53.200;5.792;2023-03-13T14:54:29;21.40;;;4.50;;
53309;SDS011;39197;53.200;5.792;2023-03-13T14:59:34;27.17;;;6.32;;
53309;SDS011;39197;53.200;5.792;2023-03-13T15:04:51;26.30;;;6.05;;
53309;SDS011;39197;53.200;5.792;2023-03-13T15:07:46;34.83;;;6.00;;
53309;SDS011;39197;53.200;5.792;2023-03-13T15:10:17;28.95;;;4.63;;
53309;SDS011;39197;53.200;5.792;2023-03-13T15:12:48;23.73;;;5.63;;
53309;SDS011;39197;53.200;5.792;2023-03-13T15:15:14;26.90;;;4.72;;
53309;SDS011;39197;53.200;5.792;2023-03-13T15:17:40;30.65;;;6.03;;
53309;SDS011;39197;53.200;5.792;2023-03-13T15:20:05;32.03;;;5.97;;
53309;SDS011;39197;53.200;5.792;2023-03-13T15:22:35;18.20;;;4.78;;
53309;SDS011;39197;53.200;5.792;2023-03-13T15:25:05;31.80;;;6.32;;
53309;SDS011;39197;53.200;5.792;2023-03-13T15:27:38;31.00;;;5.05;;
53309;SDS011;39197;53.200;5.792;2023-03-13T15:30:04;32.22;;;6.88;;
53309;SDS011;39197;53.200;5.792;2023-03-13T15:32:37;32.25;;;4.82;;
53309;SDS011;39197;53.200;5.792;2023-03-13T15:35:10;28.20;;;5.07;;
53309;SDS011;39197;53.200;5.792;2023-03-13T15:37:53;22.70;;;4.43;;
53309;SDS011;39197;53.200;5.792;2023-03-13T15:40:19;32.30;;;6.60;;
53309;SDS011;39197;53.200;5.792;2023-03-13T15:42:48;22.30;;;3.88;;
53309;SDS011;39197;53.200;5.792;2023-03-13T15:45:13;31.63;;;6.28;;
53309;SDS011;39197;53.200;5.792;2023-03-13T15:47:39;33.92;;;6.68;;
53309;SDS011;39197;53.200;5.792;2023-03-13T15:50:05;26.23;;;4.78;;
53309;SDS011;39197;53.200;5.792;2023-03-13T15:52:36;27.33;;;5.28;;
53309;SDS011;39197;53.200;5.792;2023-03-13T15:55:02;37.17;;;5.82;;
53309;SDS011;39197;53.200;5.792;2023-03-13T15:57:28;31.48;;;5.95;;
53309;SDS011;39197;53.200;5.792;2023-03-13T15:59:54;30.95;;;6.88;;
53309;SDS011;39197;53.200;5.792;2023-03-13T16:02:21;28.95;;;6.75;;
53309;SDS011;39197;53.200;5.792;2023-03-13T16:04:47;14.90;;;3.33;;
53309;SDS011;39197;53.200;5.792;2023-03-13T16:07:14;23.92;;;4.28;;
53309;SDS011;39197;53.200;5.792;2023-03-13T16:09:41;36.05;;;6.22;;
53309;SDS011;39197;53.200;5.792;2023-03-13T16:12:08;33.72;;;5.78;;
53309;SDS011;39197;53.200;5.792;2023-03-13T16:14:34;30.25;;;5.57;;
53309;SDS011;39197;53.200;5.792;2023-03-13T16:17:09;16.45;;;3.88;;
53309;SDS011;39197;53.200;5.792;2023-03-13T16:19:38;34.35;;;6.40;;
53309;SDS011;39197;53.200;5.792;2023-03-13T16:22:03;27.42;;;5.13;;
53309;SDS011;39197;53.200;5.792;2023-03-13T16:24:29;25.02;;;4.18;;
53309;SDS011;39197;53.200;5.792;2023-03-13T16:26:54;27.77;;;4.95;;
53309;SDS011;39197;53.200;5.792;2023-03-13T16:29:20;37.45;;;6.15;;
53309;SDS011;39197;53.200;5.792;2023-03-13T16:31:45;33.00;;;5.82;;
53309;SDS011;39197;53.200;5.792;2023-03-13T16:34:11;28.38;;;6.00;;
53309;SDS011;39197;53.200;5.792;2023-03-13T16:36:37;19.20;;;4.55;;
53309;SDS011;39197;53.200;5.792;2023-03-13T16:39:03;28.65;;;5.13;;
53309;SDS011;39197;53.200;5.792;2023-03-13T16:41:37;22.58;;;4.18;;
53309;SDS011;39197;53.200;5.792;2023-03-13T16:44:03;34.85;;;5.35;;